Anchorage, AK

04:14 PM AKST ar Tachwedd 25, 2014 (GMT -0900)
Merrill | Change Station
CLOSE
Current Station
Airport
Location: Anchorage Merrill,
Elevation: 135 ft
Nearby Weather Stations

Elev 135 ft 61.22 °N, 149.85 °W | Updated 21 minutes ago

Mostly Cloudy
Cymylog Yn Bennaf
35 °F
Feels Like 31 °F
N
5
Gwynt Cyfnewidiol Gwynt from Gogledd

Heddiw
High -- | Low -- °F
--% Chance of Precip.
Yesterday
High -- | Low -- °F
Precip. -- mod
9:31 AM 4:00 PM
Waxing Crescent, 15% visible
Gwasgedd 30.24 mod
Gwelededd 10.0 Milltiroedd
Clouds Cymylog Yn Bennaf 3800 ft
Oerfel Gwynt 31 °F
Gwlithbwynt 29 °F
Lleithder 78%
Rainfall 0.00 mod
Snow Depth Not available.
UV 0 out of 12
Pollen Not available.
Air Quality Not available.
Flu Activity Not available.
METAR PAMR 260053Z 35004KT 10SM BKN038 02/M02 A3023 RMK AO2 SLP239 T00171017

More Conditions Fewer Conditions

Gwasgedd 30.24 mod
Gwelededd 10.0 Milltiroedd
Clouds Cymylog Yn Bennaf 3800 ft
Oerfel Gwynt 31 °F
Gwlithbwynt 29 °F
Lleithder 78%
Rainfall 0.00 mod
Snow Depth Not available.
UV 0 out of 12
Pollen Not available.
Air Quality Not available.
Flu Activity Not available.
METAR PAMR 260053Z 35004KT 10SM BKN038 02/M02 A3023 RMK AO2 SLP239 T00171017

More Conditions Fewer Conditions

10-Day Weather Forecast

Almanac

Astronomy

Nov. 25, 2014 Rise Set
Actual Time
Civil Twilight
Nautical Twilight
Astronomical Twilight
Moon
Length Of Visible Light
Length of Day
Tomorrow will be .
, % of the Moon is Illuminated

Today's Extremes

State Highs State Lows

Community

WunderPhotos

Upload Photos

1,773,636 photos uploaded!

WunderBlogs® & News

Nearby

Air Quality

  Air Quality AQ Index Pollutant
Not available.

Snow Depth

Station Depth Elevation

Earthquake Activity

City Distance Mag. Time & Date
Minimum magnitude displayed is 2.5.

Coastal Water Temperatures

Lle Tymheredd

Nearby Weather Stations